Strona główna
METAR-TAF:

METAR-TAF

Lotnisko :

Mannheim, Niemcy

Szerokość geograficzna: 49-28-21N, Długość geograficzna: 008-30-56E, wysokość: 100 m

Aktualna obserwacja pogody

Raport powstał 47 minut temu, godzina 15:50 UTC
Wiatr 6 kt od południe, zmienny między południowy wschód i południowo-południowy zachód
Temperatura 2°C
Wilgotność 93%
Ciśnienie 1014 hPa
Widzialność 10 km lub więcej
Przerywane chmury na wysokości 700 ft
Zachmurzenie całkowite na wysokości 1700 ft

METAR: EDFM 271550Z 18006KT 140V210 9999 BKN007 OVC017 02/01 Q1014

czas: 17:37 (16:37 UTC)

Prognoza

Raport powstał 2 godziny i 37 minut temu, godzina 14:00 UTC
Prognoza ważna od 27 godzina 15 UTC do 27 godzina 21 UTC
Wiatr 6 kt od południe
Widzialność: 6000 m
Rozproszone chmury na wysokości 400 ft
Przerywane chmury na wysokości 1000 ft
Przejściowo
od 27 godzina 15 UTC do 27 godzina 21 UTC
Widzialność: 3000 m
Przerywane chmury na wysokości 400 ft
słaby mżawka, zamglenie

TAF: EDFM 271400Z 2715/2721 17006KT 6000 SCT004 BKN010 TEMPO 2715/2721 3000 -DZ BR BKN004

Obserwacja i prognoza pogody dla ponad 4000 lotnisk (raport METAR i TAF).

Dostępne stacje oznaczono żółtymi i czerwonymi punktami na mapie.

Najedź kursorem aby zobaczyć nazwę stacji.

Kliknij aby zobaczyć obserwacje i prognozy pogody.

Aby zmienić mapę: kliknij na zielony przycisk z czarnym krzyżykiem, aby powiększyć; na zielony przycisk z myślnikiem, aby pomniejszyć; na zielone strzałki, aby przejść do map sąsiednich.


METAR-TAF: